sensor_id;sensor_type;location;lat;lon;timestamp;P1;durP1;ratioP1;P2;durP2;ratioP2
14736;SDS011;7459;53.590;10.062;2023-06-22T00:02:15;6.07;;;2.63;;
14736;SDS011;7459;53.590;10.062;2023-06-22T00:04:40;7.95;;;3.28;;
14736;SDS011;7459;53.590;10.062;2023-06-22T00:07:06;7.60;;;2.67;;
14736;SDS011;7459;53.590;10.062;2023-06-22T00:09:32;6.18;;;2.53;;
14736;SDS011;7459;53.590;10.062;2023-06-22T00:11:58;6.25;;;2.40;;
14736;SDS011;7459;53.590;10.062;2023-06-22T00:14:24;6.20;;;2.97;;
14736;SDS011;7459;53.590;10.062;2023-06-22T00:16:49;7.55;;;3.17;;
14736;SDS011;7459;53.590;10.062;2023-06-22T00:19:19;5.97;;;2.73;;
14736;SDS011;7459;53.590;10.062;2023-06-22T00:21:46;6.68;;;2.83;;
14736;SDS011;7459;53.590;10.062;2023-06-22T00:24:17;6.07;;;2.70;;
14736;SDS011;7459;53.590;10.062;2023-06-22T00:26:44;5.97;;;2.50;;
14736;SDS011;7459;53.590;10.062;2023-06-22T00:29:10;5.97;;;2.22;;
14736;SDS011;7459;53.590;10.062;2023-06-22T00:31:36;7.00;;;2.80;;
14736;SDS011;7459;53.590;10.062;2023-06-22T00:34:01;5.82;;;2.53;;
14736;SDS011;7459;53.590;10.062;2023-06-22T00:36:27;7.13;;;2.40;;
14736;SDS011;7459;53.590;10.062;2023-06-22T00:38:53;6.30;;;2.83;;
14736;SDS011;7459;53.590;10.062;2023-06-22T00:41:18;6.30;;;2.60;;
14736;SDS011;7459;53.590;10.062;2023-06-22T00:43:44;6.07;;;2.58;;
14736;SDS011;7459;53.590;10.062;2023-06-22T00:46:10;7.03;;;2.40;;
14736;SDS011;7459;53.590;10.062;2023-06-22T00:48:37;5.90;;;2.40;;
14736;SDS011;7459;53.590;10.062;2023-06-22T00:51:05;5.32;;;2.38;;
14736;SDS011;7459;53.590;10.062;2023-06-22T00:53:30;6.05;;;2.50;;
14736;SDS011;7459;53.590;10.062;2023-06-22T00:55:59;6.23;;;2.77;;
14736;SDS011;7459;53.590;10.062;2023-06-22T00:58:25;5.45;;;2.40;;
14736;SDS011;7459;53.590;10.062;2023-06-22T01:00:51;6.55;;;2.60;;
14736;SDS011;7459;53.590;10.062;2023-06-22T01:03:17;6.20;;;2.70;;
14736;SDS011;7459;53.590;10.062;2023-06-22T01:05:43;9.82;;;3.17;;
14736;SDS011;7459;53.590;10.062;2023-06-22T01:10:54;6.97;;;3.08;;
14736;SDS011;7459;53.590;10.062;2023-06-22T01:16:29;5.17;;;2.27;;
14736;SDS011;7459;53.590;10.062;2023-06-22T01:19:09;6.07;;;2.45;;
14736;SDS011;7459;53.590;10.062;2023-06-22T01:22:03;6.57;;;2.15;;
14736;SDS011;7459;53.590;10.062;2023-06-22T01:30:20;6.83;;;3.00;;
14736;SDS011;7459;53.590;10.062;2023-06-22T01:32:47;8.40;;;3.00;;
14736;SDS011;7459;53.590;10.062;2023-06-22T01:35:13;6.88;;;2.80;;
14736;SDS011;7459;53.590;10.062;2023-06-22T01:37:40;6.50;;;2.70;;
14736;SDS011;7459;53.590;10.062;2023-06-22T01:40:06;7.50;;;3.30;;
14736;SDS011;7459;53.590;10.062;2023-06-22T01:42:33;7.68;;;3.30;;
14736;SDS011;7459;53.590;10.062;2023-06-22T01:45:00;10.82;;;3.28;;
14736;SDS011;7459;53.590;10.062;2023-06-22T01:47:27;7.80;;;3.53;;
14736;SDS011;7459;53.590;10.062;2023-06-22T01:49:53;8.43;;;3.10;;
14736;SDS011;7459;53.590;10.062;2023-06-22T01:52:20;8.60;;;3.08;;
14736;SDS011;7459;53.590;10.062;2023-06-22T01:54:46;8.45;;;3.03;;
14736;SDS011;7459;53.590;10.062;2023-06-22T01:57:12;7.95;;;3.33;;
14736;SDS011;7459;53.590;10.062;2023-06-22T01:59:45;9.43;;;2.90;;
14736;SDS011;7459;53.590;10.062;2023-06-22T02:02:26;7.60;;;3.72;;
14736;SDS011;7459;53.590;10.062;2023-06-22T02:05:08;6.57;;;2.88;;
14736;SDS011;7459;53.590;10.062;2023-06-22T02:07:41;7.05;;;3.17;;
14736;SDS011;7459;53.590;10.062;2023-06-22T02:10:15;9.60;;;4.27;;
14736;SDS011;7459;53.590;10.062;2023-06-22T02:12:44;8.50;;;3.70;;
14736;SDS011;7459;53.590;10.062;2023-06-22T02:15:12;7.03;;;2.70;;
14736;SDS011;7459;53.590;10.062;2023-06-22T02:17:39;6.47;;;2.80;;
14736;SDS011;7459;53.590;10.062;2023-06-22T02:20:12;6.05;;;3.25;;
14736;SDS011;7459;53.590;10.062;2023-06-22T02:22:39;8.23;;;2.93;;
14736;SDS011;7459;53.590;10.062;2023-06-22T02:25:05;7.07;;;2.72;;
14736;SDS011;7459;53.590;10.062;2023-06-22T02:27:31;6.95;;;2.90;;
14736;SDS011;7459;53.590;10.062;2023-06-22T02:29:57;7.23;;;3.23;;
14736;SDS011;7459;53.590;10.062;2023-06-22T02:32:22;7.18;;;3.28;;
14736;SDS011;7459;53.590;10.062;2023-06-22T02:34:48;8.77;;;3.83;;
14736;SDS011;7459;53.590;10.062;2023-06-22T02:37:14;6.43;;;3.10;;
14736;SDS011;7459;53.590;10.062;2023-06-22T02:39:40;10.50;;;2.93;;
14736;SDS011;7459;53.590;10.062;2023-06-22T02:42:06;9.20;;;4.00;;
14736;SDS011;7459;53.590;10.062;2023-06-22T02:44:32;6.35;;;3.08;;
14736;SDS011;7459;53.590;10.062;2023-06-22T02:46:57;8.37;;;3.50;;
14736;SDS011;7459;53.590;10.062;2023-06-22T02:49:23;8.15;;;4.00;;
14736;SDS011;7459;53.590;10.062;2023-06-22T02:51:49;10.00;;;3.88;;
14736;SDS011;7459;53.590;10.062;2023-06-22T02:54:15;6.80;;;3.50;;
14736;SDS011;7459;53.590;10.062;2023-06-22T02:56:41;7.07;;;3.22;;
14736;SDS011;7459;53.590;10.062;2023-06-22T02:59:09;6.70;;;4.05;;
14736;SDS011;7459;53.590;10.062;2023-06-22T03:01:35;7.55;;;4.13;;
14736;SDS011;7459;53.590;10.062;2023-06-22T03:04:05;7.20;;;3.77;;
14736;SDS011;7459;53.590;10.062;2023-06-22T03:06:32;8.55;;;3.55;;
14736;SDS011;7459;53.590;10.062;2023-06-22T03:09:00;6.95;;;3.88;;
14736;SDS011;7459;53.590;10.062;2023-06-22T03:11:28;7.00;;;4.10;;
14736;SDS011;7459;53.590;10.062;2023-06-22T03:13:58;9.55;;;3.88;;
14736;SDS011;7459;53.590;10.062;2023-06-22T03:16:25;8.73;;;3.70;;
14736;SDS011;7459;53.590;10.062;2023-06-22T03:18:51;7.78;;;3.55;;
14736;SDS011;7459;53.590;10.062;2023-06-22T03:21:18;7.65;;;3.40;;
14736;SDS011;7459;53.590;10.062;2023-06-22T03:23:44;6.75;;;3.40;;
14736;SDS011;7459;53.590;10.062;2023-06-22T03:26:10;9.33;;;3.77;;
14736;SDS011;7459;53.590;10.062;2023-06-22T03:28:37;8.95;;;3.67;;
14736;SDS011;7459;53.590;10.062;2023-06-22T03:31:03;8.00;;;3.95;;
14736;SDS011;7459;53.590;10.062;2023-06-22T03:33:31;8.03;;;3.83;;
14736;SDS011;7459;53.590;10.062;2023-06-22T03:35:57;7.90;;;3.60;;
14736;SDS011;7459;53.590;10.062;2023-06-22T03:38:23;9.30;;;3.53;;
14736;SDS011;7459;53.590;10.062;2023-06-22T03:40:48;7.38;;;3.67;;
14736;SDS011;7459;53.590;10.062;2023-06-22T03:43:14;10.60;;;4.43;;
14736;SDS011;7459;53.590;10.062;2023-06-22T03:45:40;9.80;;;4.13;;
14736;SDS011;7459;53.590;10.062;2023-06-22T03:48:05;8.07;;;4.32;;
14736;SDS011;7459;53.590;10.062;2023-06-22T03:50:31;11.30;;;4.20;;
14736;SDS011;7459;53.590;10.062;2023-06-22T03:52:57;8.30;;;3.93;;
14736;SDS011;7459;53.590;10.062;2023-06-22T03:55:22;8.30;;;4.33;;
14736;SDS011;7459;53.590;10.062;2023-06-22T03:57:48;8.65;;;3.58;;
14736;SDS011;7459;53.590;10.062;2023-06-22T04:00:14;8.67;;;3.93;;
14736;SDS011;7459;53.590;10.062;2023-06-22T04:02:43;8.25;;;3.83;;
14736;SDS011;7459;53.590;10.062;2023-06-22T04:05:09;8.93;;;3.83;;
14736;SDS011;7459;53.590;10.062;2023-06-22T04:07:35;8.90;;;4.10;;
14736;SDS011;7459;53.590;10.062;2023-06-22T04:10:02;7.35;;;3.60;;
14736;SDS011;7459;53.590;10.062;2023-06-22T04:12:31;10.07;;;3.50;;
14736;SDS011;7459;53.590;10.062;2023-06-22T04:14:57;7.43;;;3.97;;
14736;SDS011;7459;53.590;10.062;2023-06-22T04:17:23;13.13;;;3.90;;
14736;SDS011;7459;53.590;10.062;2023-06-22T04:19:50;9.13;;;3.75;;
14736;SDS011;7459;53.590;10.062;2023-06-22T04:22:16;8.43;;;4.43;;
14736;SDS011;7459;53.590;10.062;2023-06-22T04:24:42;9.23;;;3.83;;
14736;SDS011;7459;53.590;10.062;2023-06-22T04:27:08;6.88;;;3.50;;
14736;SDS011;7459;53.590;10.062;2023-06-22T04:29:34;6.95;;;3.83;;
14736;SDS011;7459;53.590;10.062;2023-06-22T04:32:00;7.57;;;3.40;;
14736;SDS011;7459;53.590;10.062;2023-06-22T04:34:31;9.73;;;3.70;;
14736;SDS011;7459;53.590;10.062;2023-06-22T04:36:57;7.35;;;3.53;;
14736;SDS011;7459;53.590;10.062;2023-06-22T04:39:23;7.37;;;3.23;;
14736;SDS011;7459;53.590;10.062;2023-06-22T04:41:49;6.75;;;3.25;;
14736;SDS011;7459;53.590;10.062;2023-06-22T04:44:19;9.25;;;3.35;;
14736;SDS011;7459;53.590;10.062;2023-06-22T04:46:51;7.80;;;3.50;;
14736;SDS011;7459;53.590;10.062;2023-06-22T04:49:33;6.70;;;3.20;;
14736;SDS011;7459;53.590;10.062;2023-06-22T04:52:02;9.80;;;3.73;;
14736;SDS011;7459;53.590;10.062;2023-06-22T04:54:33;8.55;;;4.03;;
14736;SDS011;7459;53.590;10.062;2023-06-22T04:57:00;7.85;;;3.67;;
14736;SDS011;7459;53.590;10.062;2023-06-22T04:59:28;7.30;;;3.40;;
14736;SDS011;7459;53.590;10.062;2023-06-22T05:01:55;8.90;;;3.35;;
14736;SDS011;7459;53.590;10.062;2023-06-22T05:04:26;9.73;;;3.73;;
14736;SDS011;7459;53.590;10.062;2023-06-22T05:06:53;6.93;;;3.58;;
14736;SDS011;7459;53.590;10.062;2023-06-22T05:09:19;8.25;;;3.47;;
14736;SDS011;7459;53.590;10.062;2023-06-22T05:11:46;7.53;;;3.22;;
14736;SDS011;7459;53.590;10.062;2023-06-22T05:14:12;7.85;;;3.38;;
14736;SDS011;7459;53.590;10.062;2023-06-22T05:16:38;6.90;;;3.30;;
14736;SDS011;7459;53.590;10.062;2023-06-22T05:19:05;6.93;;;2.80;;
14736;SDS011;7459;53.590;10.062;2023-06-22T05:21:31;7.80;;;3.22;;
14736;SDS011;7459;53.590;10.062;2023-06-22T05:23:57;7.43;;;2.97;;
14736;SDS011;7459;53.590;10.062;2023-06-22T05:26:28;6.18;;;2.78;;
14736;SDS011;7459;53.590;10.062;2023-06-22T05:29:02;5.80;;;2.70;;
14736;SDS011;7459;53.590;10.062;2023-06-22T05:31:28;8.02;;;2.40;;
14736;SDS011;7459;53.590;10.062;2023-06-22T05:33:55;8.77;;;4.18;;
14736;SDS011;7459;53.590;10.062;2023-06-22T05:36:21;13.63;;;6.93;;
14736;SDS011;7459;53.590;10.062;2023-06-22T05:38:50;22.60;;;9.30;;
14736;SDS011;7459;53.590;10.062;2023-06-22T05:41:21;14.40;;;8.18;;
14736;SDS011;7459;53.590;10.062;2023-06-22T05:43:47;11.57;;;5.45;;
14736;SDS011;7459;53.590;10.062;2023-06-22T05:46:12;10.33;;;4.53;;
14736;SDS011;7459;53.590;10.062;2023-06-22T05:48:38;9.35;;;4.75;;
14736;SDS011;7459;53.590;10.062;2023-06-22T05:51:04;6.53;;;2.73;;
14736;SDS011;7459;53.590;10.062;2023-06-22T05:53:29;7.55;;;2.63;;
14736;SDS011;7459;53.590;10.062;2023-06-22T05:55:55;5.73;;;2.60;;
14736;SDS011;7459;53.590;10.062;2023-06-22T05:58:21;6.50;;;2.63;;
14736;SDS011;7459;53.590;10.062;2023-06-22T06:00:47;7.30;;;2.20;;
14736;SDS011;7459;53.590;10.062;2023-06-22T06:03:12;6.05;;;2.10;;
14736;SDS011;7459;53.590;10.062;2023-06-22T06:05:41;6.78;;;2.20;;
14736;SDS011;7459;53.590;10.062;2023-06-22T06:08:08;5.90;;;2.10;;
14736;SDS011;7459;53.590;10.062;2023-06-22T06:10:35;5.32;;;1.80;;
14736;SDS011;7459;53.590;10.062;2023-06-22T06:13:01;5.17;;;1.70;;
14736;SDS011;7459;53.590;10.062;2023-06-22T06:15:27;5.65;;;1.60;;
14736;SDS011;7459;53.590;10.062;2023-06-22T06:17:53;6.25;;;2.10;;
14736;SDS011;7459;53.590;10.062;2023-06-22T06:20:23;5.87;;;1.97;;
14736;SDS011;7459;53.590;10.062;2023-06-22T06:22:50;15.48;;;8.40;;
14736;SDS011;7459;53.590;10.062;2023-06-22T06:25:16;9.18;;;4.63;;
14736;SDS011;7459;53.590;10.062;2023-06-22T06:27:48;6.53;;;2.70;;
14736;SDS011;7459;53.590;10.062;2023-06-22T06:30:16;7.25;;;3.17;;
14736;SDS011;7459;53.590;10.062;2023-06-22T06:32:43;7.30;;;3.30;;
14736;SDS011;7459;53.590;10.062;2023-06-22T06:35:11;9.85;;;3.83;;
14736;SDS011;7459;53.590;10.062;2023-06-22T06:37:40;7.28;;;3.30;;
14736;SDS011;7459;53.590;10.062;2023-06-22T06:40:07;9.10;;;3.72;;
14736;SDS011;7459;53.590;10.062;2023-06-22T06:42:36;6.82;;;3.10;;
14736;SDS011;7459;53.590;10.062;2023-06-22T06:45:10;11.10;;;2.93;;
14736;SDS011;7459;53.590;10.062;2023-06-22T06:47:37;8.73;;;3.35;;
14736;SDS011;7459;53.590;10.062;2023-06-22T06:50:04;7.10;;;2.20;;
14736;SDS011;7459;53.590;10.062;2023-06-22T06:52:31;7.40;;;2.53;;
14736;SDS011;7459;53.590;10.062;2023-06-22T06:54:57;5.78;;;2.35;;
14736;SDS011;7459;53.590;10.062;2023-06-22T06:57:24;4.87;;;1.80;;
14736;SDS011;7459;53.590;10.062;2023-06-22T06:59:53;5.45;;;1.65;;
14736;SDS011;7459;53.590;10.062;2023-06-22T07:02:22;6.35;;;1.80;;
14736;SDS011;7459;53.590;10.062;2023-06-22T07:04:49;6.20;;;1.80;;
14736;SDS011;7459;53.590;10.062;2023-06-22T07:07:15;8.83;;;1.60;;
14736;SDS011;7459;53.590;10.062;2023-06-22T07:09:40;5.22;;;2.00;;
14736;SDS011;7459;53.590;10.062;2023-06-22T07:12:06;4.83;;;1.70;;
14736;SDS011;7459;53.590;10.062;2023-06-22T07:14:32;5.10;;;1.60;;
14736;SDS011;7459;53.590;10.062;2023-06-22T07:16:58;6.60;;;1.50;;
14736;SDS011;7459;53.590;10.062;2023-06-22T07:19:24;5.20;;;1.73;;
14736;SDS011;7459;53.590;10.062;2023-06-22T07:21:51;5.72;;;1.98;;
14736;SDS011;7459;53.590;10.062;2023-06-22T07:24:20;4.72;;;1.83;;
14736;SDS011;7459;53.590;10.062;2023-06-22T07:26:47;6.15;;;1.48;;
14736;SDS011;7459;53.590;10.062;2023-06-22T07:29:15;7.15;;;2.00;;
14736;SDS011;7459;53.590;10.062;2023-06-22T07:31:45;6.77;;;2.57;;
14736;SDS011;7459;53.590;10.062;2023-06-22T07:34:12;4.60;;;2.17;;
14736;SDS011;7459;53.590;10.062;2023-06-22T07:36:38;7.45;;;2.28;;
14736;SDS011;7459;53.590;10.062;2023-06-22T07:39:04;6.05;;;2.33;;
14736;SDS011;7459;53.590;10.062;2023-06-22T07:41:30;6.87;;;2.47;;
14736;SDS011;7459;53.590;10.062;2023-06-22T07:43:57;4.85;;;1.70;;
14736;SDS011;7459;53.590;10.062;2023-06-22T07:46:23;5.70;;;1.73;;
14736;SDS011;7459;53.590;10.062;2023-06-22T07:48:49;4.05;;;1.27;;
14736;SDS011;7459;53.590;10.062;2023-06-22T07:51:15;4.50;;;1.60;;
14736;SDS011;7459;53.590;10.062;2023-06-22T07:53:41;3.97;;;1.50;;
14736;SDS011;7459;53.590;10.062;2023-06-22T07:56:09;4.90;;;1.53;;
14736;SDS011;7459;53.590;10.062;2023-06-22T07:58:35;5.75;;;1.80;;
14736;SDS011;7459;53.590;10.062;2023-06-22T08:01:01;5.30;;;2.10;;
14736;SDS011;7459;53.590;10.062;2023-06-22T08:03:27;6.23;;;1.80;;
14736;SDS011;7459;53.590;10.062;2023-06-22T08:05:53;4.90;;;1.95;;
14736;SDS011;7459;53.590;10.062;2023-06-22T08:08:19;8.23;;;2.03;;
14736;SDS011;7459;53.590;10.062;2023-06-22T08:10:45;5.80;;;1.60;;
14736;SDS011;7459;53.590;10.062;2023-06-22T08:13:10;5.70;;;2.03;;
14736;SDS011;7459;53.590;10.062;2023-06-22T08:15:36;5.13;;;1.57;;
14736;SDS011;7459;53.590;10.062;2023-06-22T08:18:02;6.07;;;2.00;;
14736;SDS011;7459;53.590;10.062;2023-06-22T08:20:28;6.60;;;2.43;;
14736;SDS011;7459;53.590;10.062;2023-06-22T08:22:56;4.88;;;1.58;;
14736;SDS011;7459;53.590;10.062;2023-06-22T08:25:25;6.65;;;1.80;;
14736;SDS011;7459;53.590;10.062;2023-06-22T08:27:51;5.83;;;2.17;;
14736;SDS011;7459;53.590;10.062;2023-06-22T08:30:16;5.05;;;2.20;;
14736;SDS011;7459;53.590;10.062;2023-06-22T08:32:43;4.95;;;1.83;;
14736;SDS011;7459;53.590;10.062;2023-06-22T08:35:09;7.60;;;1.75;;
14736;SDS011;7459;53.590;10.062;2023-06-22T08:37:35;4.83;;;1.80;;
14736;SDS011;7459;53.590;10.062;2023-06-22T08:40:02;5.00;;;1.67;;
14736;SDS011;7459;53.590;10.062;2023-06-22T08:42:30;7.47;;;2.42;;
14736;SDS011;7459;53.590;10.062;2023-06-22T08:44:56;4.03;;;1.67;;
14736;SDS011;7459;53.590;10.062;2023-06-22T08:47:23;5.45;;;1.60;;
14736;SDS011;7459;53.590;10.062;2023-06-22T08:49:49;6.43;;;2.13;;
14736;SDS011;7459;53.590;10.062;2023-06-22T08:52:15;4.93;;;1.80;;
14736;SDS011;7459;53.590;10.062;2023-06-22T08:54:40;4.28;;;1.60;;
14736;SDS011;7459;53.590;10.062;2023-06-22T08:57:06;4.33;;;1.70;;
14736;SDS011;7459;53.590;10.062;2023-06-22T08:59:32;4.43;;;1.50;;
14736;SDS011;7459;53.590;10.062;2023-06-22T09:01:57;4.20;;;1.43;;
14736;SDS011;7459;53.590;10.062;2023-06-22T09:04:24;3.40;;;1.35;;
14736;SDS011;7459;53.590;10.062;2023-06-22T09:06:49;3.35;;;1.20;;
14736;SDS011;7459;53.590;10.062;2023-06-22T09:09:17;4.37;;;1.40;;
14736;SDS011;7459;53.590;10.062;2023-06-22T09:11:43;4.03;;;1.42;;
14736;SDS011;7459;53.590;10.062;2023-06-22T09:14:09;5.68;;;1.75;;
14736;SDS011;7459;53.590;10.062;2023-06-22T09:16:35;4.72;;;1.52;;
14736;SDS011;7459;53.590;10.062;2023-06-22T09:19:01;4.23;;;1.53;;
14736;SDS011;7459;53.590;10.062;2023-06-22T09:21:27;4.18;;;1.90;;
14736;SDS011;7459;53.590;10.062;2023-06-22T09:23:52;4.73;;;1.70;;
14736;SDS011;7459;53.590;10.062;2023-06-22T09:26:18;4.00;;;1.27;;
14736;SDS011;7459;53.590;10.062;2023-06-22T09:28:44;5.30;;;1.60;;
14736;SDS011;7459;53.590;10.062;2023-06-22T09:31:10;5.55;;;2.15;;
14736;SDS011;7459;53.590;10.062;2023-06-22T09:33:36;4.20;;;2.72;;
14736;SDS011;7459;53.590;10.062;2023-06-22T09:36:05;5.10;;;2.20;;
14736;SDS011;7459;53.590;10.062;2023-06-22T09:38:35;6.78;;;1.90;;
14736;SDS011;7459;53.590;10.062;2023-06-22T09:41:03;4.90;;;2.05;;
14736;SDS011;7459;53.590;10.062;2023-06-22T09:43:30;6.28;;;1.98;;
14736;SDS011;7459;53.590;10.062;2023-06-22T09:45:57;6.78;;;2.08;;
14736;SDS011;7459;53.590;10.062;2023-06-22T09:48:23;5.27;;;2.00;;
14736;SDS011;7459;53.590;10.062;2023-06-22T09:50:49;6.55;;;2.20;;
14736;SDS011;7459;53.590;10.062;2023-06-22T09:53:14;5.30;;;1.83;;
14736;SDS011;7459;53.590;10.062;2023-06-22T09:55:40;5.43;;;2.40;;
14736;SDS011;7459;53.590;10.062;2023-06-22T09:58:06;8.37;;;2.37;;
14736;SDS011;7459;53.590;10.062;2023-06-22T10:00:31;5.93;;;1.98;;
14736;SDS011;7459;53.590;10.062;2023-06-22T10:02:57;6.77;;;2.10;;
14736;SDS011;7459;53.590;10.062;2023-06-22T10:05:23;6.75;;;2.05;;
14736;SDS011;7459;53.590;10.062;2023-06-22T10:07:50;4.80;;;1.80;;
14736;SDS011;7459;53.590;10.062;2023-06-22T10:10:15;4.77;;;2.03;;
14736;SDS011;7459;53.590;10.062;2023-06-22T10:12:43;4.30;;;1.83;;
14736;SDS011;7459;53.590;10.062;2023-06-22T10:15:20;6.07;;;2.30;;
14736;SDS011;7459;53.590;10.062;2023-06-22T10:17:47;4.25;;;1.90;;
14736;SDS011;7459;53.590;10.062;2023-06-22T10:20:13;5.18;;;2.28;;
14736;SDS011;7459;53.590;10.062;2023-06-22T10:22:43;6.20;;;2.07;;
14736;SDS011;7459;53.590;10.062;2023-06-22T10:25:10;5.18;;;2.10;;
14736;SDS011;7459;53.590;10.062;2023-06-22T10:27:38;6.20;;;2.15;;
14736;SDS011;7459;53.590;10.062;2023-06-22T10:30:10;5.63;;;1.83;;
14736;SDS011;7459;53.590;10.062;2023-06-22T10:32:37;7.10;;;2.35;;
14736;SDS011;7459;53.590;10.062;2023-06-22T10:35:04;5.37;;;2.00;;
14736;SDS011;7459;53.590;10.062;2023-06-22T10:37:31;5.30;;;2.13;;
14736;SDS011;7459;53.590;10.062;2023-06-22T10:39:56;4.55;;;2.13;;
14736;SDS011;7459;53.590;10.062;2023-06-22T10:42:22;5.40;;;2.30;;
14736;SDS011;7459;53.590;10.062;2023-06-22T10:44:48;5.97;;;2.30;;
14736;SDS011;7459;53.590;10.062;2023-06-22T10:47:14;6.50;;;2.33;;
14736;SDS011;7459;53.590;10.062;2023-06-22T10:49:40;6.50;;;2.07;;
14736;SDS011;7459;53.590;10.062;2023-06-22T10:52:06;5.07;;;2.38;;
14736;SDS011;7459;53.590;10.062;2023-06-22T10:54:33;5.32;;;2.25;;
14736;SDS011;7459;53.590;10.062;2023-06-22T10:57:00;6.18;;;2.70;;
14736;SDS011;7459;53.590;10.062;2023-06-22T10:59:26;5.47;;;2.13;;
14736;SDS011;7459;53.590;10.062;2023-06-22T11:01:53;7.13;;;2.67;;
14736;SDS011;7459;53.590;10.062;2023-06-22T11:04:20;7.00;;;2.60;;
14736;SDS011;7459;53.590;10.062;2023-06-22T11:06:46;6.28;;;2.65;;
14736;SDS011;7459;53.590;10.062;2023-06-22T11:09:13;5.45;;;2.67;;
14736;SDS011;7459;53.590;10.062;2023-06-22T11:11:43;8.57;;;3.17;;
14736;SDS011;7459;53.590;10.062;2023-06-22T11:14:09;5.85;;;2.40;;
14736;SDS011;7459;53.590;10.062;2023-06-22T11:16:35;7.30;;;2.42;;
14736;SDS011;7459;53.590;10.062;2023-06-22T11:19:01;8.77;;;2.93;;
14736;SDS011;7459;53.590;10.062;2023-06-22T11:21:28;7.07;;;2.88;;
14736;SDS011;7459;53.590;10.062;2023-06-22T11:23:53;6.63;;;2.33;;
14736;SDS011;7459;53.590;10.062;2023-06-22T11:26:19;5.33;;;2.43;;
14736;SDS011;7459;53.590;10.062;2023-06-22T11:28:46;6.25;;;2.42;;
14736;SDS011;7459;53.590;10.062;2023-06-22T11:31:12;5.97;;;2.80;;
14736;SDS011;7459;53.590;10.062;2023-06-22T11:33:37;7.60;;;2.97;;
14736;SDS011;7459;53.590;10.062;2023-06-22T11:36:03;6.97;;;2.70;;
14736;SDS011;7459;53.590;10.062;2023-06-22T11:38:30;6.38;;;3.28;;
14736;SDS011;7459;53.590;10.062;2023-06-22T11:40:57;5.57;;;3.00;;
14736;SDS011;7459;53.590;10.062;2023-06-22T11:43:23;6.47;;;2.90;;
14736;SDS011;7459;53.590;10.062;2023-06-22T11:45:49;4.53;;;2.80;;
14736;SDS011;7459;53.590;10.062;2023-06-22T11:48:15;6.20;;;2.80;;
14736;SDS011;7459;53.590;10.062;2023-06-22T11:50:41;5.78;;;2.65;;
14736;SDS011;7459;53.590;10.062;2023-06-22T11:53:07;5.40;;;3.10;;
14736;SDS011;7459;53.590;10.062;2023-06-22T11:55:32;7.40;;;3.33;;
14736;SDS011;7459;53.590;10.062;2023-06-22T11:57:58;6.73;;;3.00;;
14736;SDS011;7459;53.590;10.062;2023-06-22T12:00:26;4.95;;;2.75;;
14736;SDS011;7459;53.590;10.062;2023-06-22T12:02:52;5.88;;;3.10;;
14736;SDS011;7459;53.590;10.062;2023-06-22T12:05:21;6.60;;;3.27;;
14736;SDS011;7459;53.590;10.062;2023-06-22T12:07:49;6.45;;;2.97;;
14736;SDS011;7459;53.590;10.062;2023-06-22T12:10:14;6.13;;;3.13;;
14736;SDS011;7459;53.590;10.062;2023-06-22T12:12:40;5.22;;;2.60;;
14736;SDS011;7459;53.590;10.062;2023-06-22T12:15:07;5.23;;;2.73;;
14736;SDS011;7459;53.590;10.062;2023-06-22T12:17:34;6.05;;;2.97;;
14736;SDS011;7459;53.590;10.062;2023-06-22T12:20:00;5.32;;;3.13;;
14736;SDS011;7459;53.590;10.062;2023-06-22T12:22:26;5.70;;;2.77;;
14736;SDS011;7459;53.590;10.062;2023-06-22T12:24:52;7.53;;;3.28;;
14736;SDS011;7459;53.590;10.062;2023-06-22T12:27:18;7.60;;;3.20;;
14736;SDS011;7459;53.590;10.062;2023-06-22T12:29:47;6.05;;;3.47;;
14736;SDS011;7459;53.590;10.062;2023-06-22T12:32:12;7.28;;;2.97;;
14736;SDS011;7459;53.590;10.062;2023-06-22T12:34:39;6.18;;;3.33;;
14736;SDS011;7459;53.590;10.062;2023-06-22T12:37:07;5.43;;;3.33;;
14736;SDS011;7459;53.590;10.062;2023-06-22T12:39:32;7.40;;;3.22;;
14736;SDS011;7459;53.590;10.062;2023-06-22T12:41:58;7.60;;;3.30;;
14736;SDS011;7459;53.590;10.062;2023-06-22T12:44:24;6.57;;;3.72;;
14736;SDS011;7459;53.590;10.062;2023-06-22T12:46:50;5.37;;;3.00;;
14736;SDS011;7459;53.590;10.062;2023-06-22T12:49:15;9.60;;;3.20;;
14736;SDS011;7459;53.590;10.062;2023-06-22T12:51:41;8.87;;;3.33;;
14736;SDS011;7459;53.590;10.062;2023-06-22T12:54:08;6.57;;;3.30;;
14736;SDS011;7459;53.590;10.062;2023-06-22T12:56:35;6.78;;;3.20;;
14736;SDS011;7459;53.590;10.062;2023-06-22T12:59:02;8.65;;;3.90;;
14736;SDS011;7459;53.590;10.062;2023-06-22T13:01:29;9.65;;;3.90;;
14736;SDS011;7459;53.590;10.062;2023-06-22T13:03:55;6.27;;;3.67;;
14736;SDS011;7459;53.590;10.062;2023-06-22T13:06:21;8.57;;;3.10;;
14736;SDS011;7459;53.590;10.062;2023-06-22T13:08:47;7.20;;;4.07;;
14736;SDS011;7459;53.590;10.062;2023-06-22T13:11:13;6.03;;;3.53;;
14736;SDS011;7459;53.590;10.062;2023-06-22T13:13:39;9.65;;;3.45;;
14736;SDS011;7459;53.590;10.062;2023-06-22T13:16:05;5.70;;;3.47;;
14736;SDS011;7459;53.590;10.062;2023-06-22T13:18:32;8.15;;;3.63;;
14736;SDS011;7459;53.590;10.062;2023-06-22T13:20:59;6.60;;;3.17;;
14736;SDS011;7459;53.590;10.062;2023-06-22T13:23:25;7.28;;;3.67;;
14736;SDS011;7459;53.590;10.062;2023-06-22T13:25:51;6.18;;;3.70;;
14736;SDS011;7459;53.590;10.062;2023-06-22T13:28:16;9.40;;;3.90;;
14736;SDS011;7459;53.590;10.062;2023-06-22T13:30:42;6.95;;;3.70;;
14736;SDS011;7459;53.590;10.062;2023-06-22T13:33:10;6.67;;;3.67;;
14736;SDS011;7459;53.590;10.062;2023-06-22T13:35:36;5.93;;;3.80;;
14736;SDS011;7459;53.590;10.062;2023-06-22T13:38:02;7.18;;;3.88;;
14736;SDS011;7459;53.590;10.062;2023-06-22T13:40:28;8.00;;;3.07;;
14736;SDS011;7459;53.590;10.062;2023-06-22T13:42:55;7.03;;;3.40;;
14736;SDS011;7459;53.590;10.062;2023-06-22T13:45:21;6.10;;;3.47;;
14736;SDS011;7459;53.590;10.062;2023-06-22T13:47:46;6.97;;;4.00;;
14736;SDS011;7459;53.590;10.062;2023-06-22T13:50:12;6.13;;;3.57;;
14736;SDS011;7459;53.590;10.062;2023-06-22T13:52:38;6.00;;;3.60;;
14736;SDS011;7459;53.590;10.062;2023-06-22T13:55:05;6.63;;;3.78;;
14736;SDS011;7459;53.590;10.062;2023-06-22T13:57:32;7.57;;;3.20;;
14736;SDS011;7459;53.590;10.062;2023-06-22T13:59:59;5.97;;;3.50;;
14736;SDS011;7459;53.590;10.062;2023-06-22T14:02:27;7.07;;;3.75;;
14736;SDS011;7459;53.590;10.062;2023-06-22T14:04:53;6.72;;;3.63;;
14736;SDS011;7459;53.590;10.062;2023-06-22T14:07:19;7.70;;;3.53;;
14736;SDS011;7459;53.590;10.062;2023-06-22T14:09:45;6.60;;;3.40;;
14736;SDS011;7459;53.590;10.062;2023-06-22T14:12:11;7.70;;;3.78;;
14736;SDS011;7459;53.590;10.062;2023-06-22T14:14:37;6.93;;;3.97;;
14736;SDS011;7459;53.590;10.062;2023-06-22T14:17:03;6.80;;;4.00;;
14736;SDS011;7459;53.590;10.062;2023-06-22T14:19:30;6.90;;;4.03;;
14736;SDS011;7459;53.590;10.062;2023-06-22T14:21:56;7.00;;;3.85;;
14736;SDS011;7459;53.590;10.062;2023-06-22T14:24:24;6.43;;;3.30;;
14736;SDS011;7459;53.590;10.062;2023-06-22T14:26:50;6.40;;;3.20;;
14736;SDS011;7459;53.590;10.062;2023-06-22T14:29:15;6.93;;;3.75;;
14736;SDS011;7459;53.590;10.062;2023-06-22T14:31:44;7.90;;;3.70;;
14736;SDS011;7459;53.590;10.062;2023-06-22T14:34:11;6.35;;;4.07;;
14736;SDS011;7459;53.590;10.062;2023-06-22T14:36:36;6.80;;;3.93;;
14736;SDS011;7459;53.590;10.062;2023-06-22T14:39:02;5.63;;;3.70;;
14736;SDS011;7459;53.590;10.062;2023-06-22T14:41:29;6.32;;;3.72;;
14736;SDS011;7459;53.590;10.062;2023-06-22T14:43:57;6.30;;;3.43;;
14736;SDS011;7459;53.590;10.062;2023-06-22T14:46:23;7.32;;;3.72;;
14736;SDS011;7459;53.590;10.062;2023-06-22T14:48:49;8.13;;;4.07;;
14736;SDS011;7459;53.590;10.062;2023-06-22T14:51:15;5.97;;;3.45;;
14736;SDS011;7459;53.590;10.062;2023-06-22T14:53:42;6.25;;;3.90;;
14736;SDS011;7459;53.590;10.062;2023-06-22T14:56:09;6.97;;;3.72;;
14736;SDS011;7459;53.590;10.062;2023-06-22T14:58:35;8.50;;;3.97;;